aviador You're here:

KLOR Decoded Metar

LOWE AHP/FT. RUC in AL, USA
Report Time2017-06-25 19:58:00
UTC Time2017-06-25 20:43:31
Flight Rules vfr VFR
Wind010° at 07 kt
W.Decomp.*RWY 36: 6.8 kt HW 1.6 kt RCW
RWY 06: 4.8 kt HW 5.1 kt LCW
W.Rank010° ranks 9
Current wind is above 010° avg. (5.6)
Visibility9999 m
Phenomena:N/A
Clouds:Few 350 Hf
Expected CloudBase > 4,000 ft AGL from Temp-Dew spread
CeilingNone
Temp30°C (ISA +15)
Dew Point20°C (55% RH)
Heat Index31.9°C
QNH1019 hPa
Density Alt2,126 ft
Elevation243 ft
Report Wrong Elevation
Raw Report
KLOR 251958Z AUTO 01007KT 10SM FEW350 30/20 A3008 RMK AO2 LTG DSNT
S SLP167 T03000204=

Extra information for KLOR:More info

Metar Taf Metar & Taf Last 4 Metars F.Rules Stats Wind Profile Meteogram Temp Stats Airport Information Weather charts Add Link Nearby VenuesMetar ALERT Operation Metar Decoded Social comments

AIRNAV info for KLOR